createdAt,value
2022-10-04T00:00:19.639Z,46.24
2022-10-04T00:01:19.661Z,40.39
2022-10-04T00:02:19.626Z,40.09
2022-10-04T00:03:19.663Z,44.15
2022-10-04T00:04:20.611Z,44.88
2022-10-04T00:05:19.606Z,44.39
2022-10-04T00:06:19.595Z,40.75
2022-10-04T00:07:19.583Z,41.69
2022-10-04T00:08:19.606Z,45.31
2022-10-04T00:09:19.575Z,44.87
2022-10-04T00:10:19.565Z,54.44
2022-10-04T00:11:19.559Z,53.68
2022-10-04T00:12:19.541Z,54.29
2022-10-04T00:13:19.565Z,54.59
2022-10-04T00:14:19.525Z,55.43
2022-10-04T00:15:19.600Z,56.65
2022-10-04T00:16:19.630Z,56.06
2022-10-04T00:17:19.512Z,49.19
2022-10-04T00:18:19.531Z,46.31
2022-10-04T00:19:19.495Z,39.92
2022-10-04T00:20:19.487Z,44.45
2022-10-04T00:21:19.477Z,45.11
2022-10-04T00:22:19.469Z,43.19
2022-10-04T00:23:19.490Z,47.59
2022-10-04T00:24:19.459Z,40.37
2022-10-04T00:25:19.447Z,42.74
2022-10-04T00:26:19.434Z,40.67
2022-10-04T00:27:19.436Z,44.29
2022-10-04T00:28:19.526Z,40.64
2022-10-04T00:29:19.416Z,42.86
2022-10-04T00:30:19.404Z,41.70
2022-10-04T00:31:19.444Z,40.60
2022-10-04T00:32:19.384Z,49.65
2022-10-04T00:33:19.412Z,44.20
2022-10-04T00:34:19.381Z,45.48
2022-10-04T00:35:19.363Z,40.13
2022-10-04T00:36:19.362Z,48.59
2022-10-04T00:37:19.358Z,46.49
2022-10-04T00:38:19.362Z,42.72
2022-10-04T00:39:19.338Z,50.57
2022-10-04T00:40:19.325Z,44.94
2022-10-04T00:41:19.321Z,49.24
2022-10-04T00:42:19.312Z,39.76
2022-10-04T00:43:19.332Z,42.02
2022-10-04T00:44:19.296Z,39.92
2022-10-04T00:45:19.289Z,42.69
2022-10-04T00:46:19.298Z,42.93
2022-10-04T00:47:19.271Z,39.38
2022-10-04T00:48:19.298Z,39.11
2022-10-04T00:49:19.250Z,39.61
2022-10-04T00:50:19.255Z,40.41
2022-10-04T00:51:19.242Z,40.15
2022-10-04T00:52:19.232Z,39.80
2022-10-04T00:53:19.253Z,51.26
2022-10-04T00:54:19.212Z,45.15
2022-10-04T00:55:19.208Z,40.45
2022-10-04T00:56:19.201Z,48.84
2022-10-04T00:57:19.197Z,50.40
2022-10-04T00:58:19.191Z,52.94
2022-10-04T00:59:19.206Z,49.23
2022-10-04T01:00:19.180Z,43.86
2022-10-04T01:01:19.201Z,55.50
2022-10-04T01:02:19.239Z,44.87
2022-10-04T01:03:19.143Z,43.31
2022-10-04T01:04:19.172Z,42.62
2022-10-04T01:05:19.138Z,42.34
2022-10-04T01:06:19.127Z,40.99
2022-10-04T01:07:19.130Z,54.00
2022-10-04T01:08:19.110Z,46.03
2022-10-04T01:09:19.130Z,40.81
2022-10-04T01:10:19.098Z,42.99
2022-10-04T01:11:19.091Z,48.76
2022-10-04T01:12:19.077Z,41.24
2022-10-04T01:13:19.067Z,47.41
2022-10-04T01:14:19.091Z,54.31
2022-10-04T01:15:19.053Z,46.27
2022-10-04T01:16:19.097Z,41.40
2022-10-04T01:17:19.046Z,50.27
2022-10-04T01:18:19.036Z,55.77
2022-10-04T01:19:19.062Z,56.77
2022-10-04T01:20:19.019Z,53.94
2022-10-04T01:21:19.021Z,57.80
2022-10-04T01:22:19.003Z,58.29
2022-10-04T01:23:19.002Z,57.76
2022-10-04T01:24:18.998Z,57.55
2022-10-04T01:25:19.006Z,57.69
2022-10-04T01:26:18.966Z,58.04
2022-10-04T01:27:18.966Z,60.66
2022-10-04T01:28:19.010Z,51.15
2022-10-04T01:29:18.954Z,39.40
2022-10-04T01:30:18.974Z,43.78
2022-10-04T01:31:18.970Z,51.12
2022-10-04T01:32:18.923Z,45.65
2022-10-04T01:33:18.919Z,49.90
2022-10-04T01:34:18.939Z,48.51
2022-10-04T01:35:18.896Z,50.03
2022-10-04T01:36:18.897Z,48.65
2022-10-04T01:37:18.888Z,54.27
2022-10-04T01:38:18.880Z,44.21
2022-10-04T01:39:18.903Z,44.76
2022-10-04T01:40:18.862Z,43.02
2022-10-04T01:41:18.855Z,45.74
2022-10-04T01:42:18.854Z,39.34
2022-10-04T01:43:18.842Z,43.85
2022-10-04T01:44:18.867Z,39.46
2022-10-04T01:45:18.828Z,44.65
2022-10-04T01:46:18.836Z,47.80
2022-10-04T01:47:18.808Z,43.17
2022-10-04T01:48:18.802Z,44.50
2022-10-04T01:49:18.794Z,50.19
2022-10-04T01:50:18.805Z,45.92
2022-10-04T01:51:18.781Z,42.66
2022-10-04T01:52:18.771Z,46.82
2022-10-04T01:53:18.763Z,43.13
2022-10-04T01:54:18.760Z,47.53
2022-10-04T01:55:18.770Z,47.04
2022-10-04T01:56:18.744Z,43.74
2022-10-04T01:57:18.734Z,47.05
2022-10-04T01:58:18.733Z,48.92
2022-10-04T01:59:18.719Z,44.42
2022-10-04T02:00:18.748Z,42.70
2022-10-04T02:01:18.781Z,52.36
2022-10-04T02:02:18.702Z,48.35
2022-10-04T02:03:18.690Z,51.98
2022-10-04T02:04:22.291Z,45.47
2022-10-04T02:05:19.700Z,53.15
2022-10-04T02:06:18.670Z,43.10
2022-10-04T02:07:18.657Z,47.76
2022-10-04T02:08:18.652Z,41.87
2022-10-04T02:09:18.639Z,49.70
2022-10-04T02:10:18.657Z,42.93
2022-10-04T02:11:18.624Z,44.40
2022-10-04T02:12:18.623Z,43.18
2022-10-04T02:13:18.624Z,45.49
2022-10-04T02:14:18.601Z,47.25
2022-10-04T02:15:18.627Z,44.01
2022-10-04T02:16:18.618Z,52.78
2022-10-04T02:17:18.579Z,48.01
2022-10-04T02:18:18.575Z,45.87
2022-10-04T02:19:18.571Z,46.56
2022-10-04T02:20:18.587Z,40.95
2022-10-04T02:21:18.552Z,57.30
2022-10-04T02:22:18.542Z,45.19
2022-10-04T02:23:18.610Z,41.01
2022-10-04T02:24:18.524Z,47.09
2022-10-04T02:25:18.560Z,41.41
2022-10-04T02:26:18.517Z,42.92
2022-10-04T02:27:18.508Z,44.93
2022-10-04T02:28:18.538Z,51.42
2022-10-04T02:29:18.487Z,46.76
2022-10-04T02:30:18.517Z,44.79
2022-10-04T02:31:18.525Z,44.40
2022-10-04T02:32:18.466Z,40.91
2022-10-04T02:33:18.464Z,47.51
2022-10-04T02:34:18.452Z,48.87
2022-10-04T02:35:18.444Z,46.47
2022-10-04T02:36:18.472Z,48.49
2022-10-04T02:37:18.432Z,53.58
2022-10-04T02:38:18.428Z,48.26
2022-10-04T02:39:18.421Z,50.57
2022-10-04T02:40:18.419Z,50.96
2022-10-04T02:41:18.425Z,53.88
2022-10-04T02:42:18.393Z,55.05
2022-10-04T02:43:18.388Z,57.29
2022-10-04T02:44:18.386Z,58.37
2022-10-04T02:45:18.375Z,58.79
2022-10-04T02:46:18.409Z,52.34
2022-10-04T02:47:18.364Z,50.61
2022-10-04T02:48:18.346Z,44.16
2022-10-04T02:49:18.342Z,45.53
2022-10-04T02:50:18.341Z,54.04
2022-10-04T02:51:18.346Z,45.99
2022-10-04T02:52:18.321Z,51.76
2022-10-04T02:53:18.306Z,45.34
2022-10-04T02:54:18.299Z,47.74
2022-10-04T02:55:18.299Z,51.90
2022-10-04T02:56:18.316Z,43.63
2022-10-04T02:57:18.287Z,51.07
2022-10-04T02:58:18.291Z,56.13
2022-10-04T02:59:18.264Z,49.47
2022-10-04T03:00:18.293Z,52.76
2022-10-04T03:01:18.298Z,50.56
2022-10-04T03:02:23.637Z,50.89
2022-10-04T03:03:19.237Z,50.75
2022-10-04T03:04:18.232Z,52.57
2022-10-04T03:05:18.246Z,45.45
2022-10-04T03:06:18.220Z,50.50
2022-10-04T03:07:18.215Z,43.52
2022-10-04T03:08:18.199Z,51.64
2022-10-04T03:09:18.189Z,50.36
2022-10-04T03:10:18.221Z,53.68
2022-10-04T03:11:18.195Z,49.96
2022-10-04T03:12:18.171Z,50.34
2022-10-04T03:13:18.170Z,52.85
2022-10-04T03:14:18.154Z,49.28
2022-10-04T03:15:18.186Z,50.99
2022-10-04T03:16:18.220Z,53.58
2022-10-04T03:17:18.117Z,51.27
2022-10-04T03:18:19.120Z,52.77
2022-10-04T03:19:18.115Z,52.65
2022-10-04T03:20:18.107Z,51.12
2022-10-04T03:21:18.126Z,49.30
2022-10-04T03:22:18.092Z,49.81
2022-10-04T03:23:18.084Z,53.12
2022-10-04T03:24:18.079Z,55.49
2022-10-04T03:25:18.075Z,45.42
2022-10-04T03:26:18.492Z,56.06
2022-10-04T03:27:18.059Z,51.61
2022-10-04T03:28:18.130Z,54.50
2022-10-04T03:29:18.042Z,53.60
2022-10-04T03:30:18.047Z,57.98
2022-10-04T03:31:18.082Z,51.48
2022-10-04T03:32:18.009Z,51.93
2022-10-04T03:33:19.016Z,51.98
2022-10-04T03:34:18.006Z,55.58
2022-10-04T03:35:17.997Z,52.00
2022-10-04T03:36:18.014Z,57.80
2022-10-04T03:37:17.974Z,57.41
2022-10-04T03:38:17.972Z,56.51
2022-10-04T03:39:17.984Z,54.58
2022-10-04T03:40:17.984Z,52.91
2022-10-04T03:41:17.950Z,54.95
2022-10-04T03:42:17.936Z,52.32
2022-10-04T03:43:17.931Z,53.33
2022-10-04T03:44:17.927Z,52.28
2022-10-04T03:45:17.946Z,56.39
2022-10-04T03:46:17.932Z,55.47
2022-10-04T03:47:17.895Z,52.93
2022-10-04T03:48:17.895Z,53.80
2022-10-04T03:49:17.885Z,55.22
2022-10-04T03:50:17.913Z,53.88
2022-10-04T03:51:17.872Z,54.37
2022-10-04T03:52:17.866Z,56.18
2022-10-04T03:53:17.853Z,56.11
2022-10-04T03:54:17.849Z,56.83
2022-10-04T03:55:17.847Z,55.48
2022-10-04T03:56:17.864Z,54.47
2022-10-04T03:57:17.827Z,58.37
2022-10-04T03:58:52.224Z,54.22
2022-10-04T03:59:17.817Z,57.42
2022-10-04T04:00:17.816Z,55.65
2022-10-04T04:01:17.862Z,56.56
2022-10-04T04:02:18.841Z,56.35
2022-10-04T04:03:17.793Z,58.69
2022-10-04T04:04:17.782Z,59.78
2022-10-04T04:05:17.785Z,59.80
2022-10-04T04:06:17.792Z,53.33
2022-10-04T04:07:17.762Z,51.51
2022-10-04T04:08:17.754Z,53.15
2022-10-04T04:09:17.746Z,52.60
2022-10-04T04:10:17.731Z,54.29
2022-10-04T04:11:17.760Z,52.03
2022-10-04T04:12:17.736Z,51.60
2022-10-04T04:13:17.723Z,55.11
2022-10-04T04:14:17.706Z,56.01
2022-10-04T04:15:17.710Z,56.08
2022-10-04T04:16:17.870Z,57.62
2022-10-04T04:17:17.700Z,56.07
2022-10-04T04:18:17.682Z,57.19
2022-10-04T04:19:17.679Z,56.62
2022-10-04T04:20:17.660Z,59.83
2022-10-04T04:21:17.691Z,56.38
2022-10-04T04:22:17.649Z,55.47
2022-10-04T04:23:17.645Z,57.55
2022-10-04T04:24:17.632Z,56.85
2022-10-04T04:25:17.630Z,60.48
2022-10-04T04:26:17.648Z,58.65
2022-10-04T04:27:17.614Z,57.87
2022-10-04T04:28:17.675Z,57.27
2022-10-04T04:29:17.600Z,60.07
2022-10-04T04:30:17.592Z,59.48
2022-10-04T04:31:17.709Z,57.49
2022-10-04T04:32:17.574Z,54.88
2022-10-04T04:33:20.978Z,57.73
2022-10-04T04:34:18.557Z,57.48
2022-10-04T04:35:17.552Z,57.11
2022-10-04T04:36:17.567Z,57.13
2022-10-04T04:37:17.538Z,57.24
2022-10-04T04:38:17.531Z,57.37
2022-10-04T04:39:17.519Z,58.12
2022-10-04T04:40:17.519Z,58.78
2022-10-04T04:41:17.530Z,58.28
2022-10-04T04:42:17.500Z,53.25
2022-10-04T04:43:17.486Z,54.88
2022-10-04T04:44:17.488Z,56.07
2022-10-04T04:45:17.473Z,56.99
2022-10-04T04:46:27.581Z,57.64
2022-10-04T04:47:19.461Z,54.63
2022-10-04T04:48:17.457Z,56.63
2022-10-04T04:49:17.442Z,56.91
2022-10-04T04:50:17.443Z,56.49
2022-10-04T04:51:17.457Z,59.43
2022-10-04T04:52:17.428Z,56.25
2022-10-04T04:53:17.433Z,57.60
2022-10-04T04:54:17.406Z,56.52
2022-10-04T04:55:17.400Z,56.77
2022-10-04T04:56:18.177Z,57.20
2022-10-04T04:57:18.377Z,53.87
2022-10-04T04:58:17.370Z,55.71
2022-10-04T04:59:17.363Z,60.76
2022-10-04T05:00:17.360Z,59.46
2022-10-04T05:01:17.443Z,55.18
2022-10-04T05:02:17.376Z,58.09
2022-10-04T05:03:17.342Z,55.85
2022-10-04T05:04:17.333Z,54.88
2022-10-04T05:05:17.327Z,57.26
2022-10-04T05:06:17.341Z,52.16
2022-10-04T05:07:17.301Z,53.21
2022-10-04T05:08:17.296Z,56.86
2022-10-04T05:09:17.287Z,58.29
2022-10-04T05:10:17.288Z,55.18
2022-10-04T05:11:17.307Z,61.54
2022-10-04T05:12:17.265Z,58.77
2022-10-04T05:13:17.262Z,58.08
2022-10-04T05:14:17.251Z,56.02
2022-10-04T05:15:19.455Z,56.83
2022-10-04T05:16:17.345Z,57.30
2022-10-04T05:17:17.231Z,57.52
2022-10-04T05:18:17.216Z,59.18
2022-10-04T05:19:17.209Z,55.53
2022-10-04T05:20:17.206Z,52.21
2022-10-04T05:21:17.218Z,56.86
2022-10-04T05:22:17.183Z,57.89
2022-10-04T05:23:17.187Z,56.99
2022-10-04T05:24:17.171Z,53.64
2022-10-04T05:25:17.167Z,56.60
2022-10-04T05:26:17.181Z,56.99
2022-10-04T05:27:17.144Z,55.03
2022-10-04T05:28:17.197Z,57.38
2022-10-04T05:29:17.147Z,57.81
2022-10-04T05:30:17.175Z,56.16
2022-10-04T05:31:17.182Z,53.75
2022-10-04T05:32:17.116Z,60.52
2022-10-04T05:33:17.098Z,56.06
2022-10-04T05:34:17.091Z,55.75
2022-10-04T05:35:17.090Z,55.90
2022-10-04T05:36:17.114Z,58.58
2022-10-04T05:37:17.073Z,57.87
2022-10-04T05:38:17.070Z,56.68
2022-10-04T05:39:17.065Z,54.13
2022-10-04T05:40:17.056Z,57.29
2022-10-04T05:41:17.042Z,57.69
2022-10-04T05:42:17.068Z,55.25
2022-10-04T05:43:17.027Z,58.56
2022-10-04T05:44:17.022Z,57.38
2022-10-04T05:45:17.008Z,57.41
2022-10-04T05:46:17.092Z,57.52
2022-10-04T05:47:17.022Z,58.36
2022-10-04T05:48:16.985Z,55.87
2022-10-04T05:49:19.588Z,56.70
2022-10-04T05:50:17.972Z,57.11
2022-10-04T05:51:16.965Z,57.25
2022-10-04T05:52:17.215Z,58.31
2022-10-04T05:53:16.950Z,56.73
2022-10-04T05:54:16.941Z,56.22
2022-10-04T05:55:16.935Z,57.78
2022-10-04T05:56:16.932Z,59.04
2022-10-04T05:57:16.986Z,56.47
2022-10-04T05:58:16.916Z,55.71
2022-10-04T05:59:16.913Z,52.01
2022-10-04T06:00:16.893Z,57.00
2022-10-04T06:01:16.945Z,57.71
2022-10-04T06:02:16.950Z,57.49
2022-10-04T06:03:16.875Z,50.85
2022-10-04T06:04:16.981Z,58.37
2022-10-04T06:05:16.859Z,57.60
2022-10-04T06:06:16.848Z,57.00
2022-10-04T06:07:16.871Z,58.63
2022-10-04T06:08:16.840Z,60.69
2022-10-04T06:09:16.823Z,60.03
2022-10-04T06:10:16.811Z,59.43
2022-10-04T06:11:17.806Z,58.83
2022-10-04T06:12:16.835Z,59.26
2022-10-04T06:13:16.793Z,59.58
2022-10-04T06:14:16.800Z,59.99
2022-10-04T06:15:16.773Z,59.45
2022-10-04T06:16:16.832Z,59.42
2022-10-04T06:17:17.222Z,59.81
2022-10-04T06:18:16.771Z,59.65
2022-10-04T06:19:16.752Z,59.03
2022-10-04T06:20:16.745Z,58.37
2022-10-04T06:21:16.737Z,55.53
2022-10-04T06:22:16.754Z,59.93
2022-10-04T06:23:16.732Z,56.79
2022-10-04T06:24:16.714Z,55.42
2022-10-04T06:25:16.725Z,56.94
2022-10-04T06:26:16.694Z,57.69
2022-10-04T06:27:16.716Z,56.18
2022-10-04T06:28:16.744Z,60.29
2022-10-04T06:29:16.670Z,55.13
2022-10-04T06:30:16.674Z,56.97
2022-10-04T06:31:16.711Z,53.10
2022-10-04T06:32:16.680Z,56.32
2022-10-04T06:33:16.652Z,55.78
2022-10-04T06:34:16.647Z,49.32
2022-10-04T06:35:16.639Z,57.00
2022-10-04T06:36:16.618Z,57.98
2022-10-04T06:37:16.641Z,53.90
2022-10-04T06:38:16.608Z,55.31
2022-10-04T06:39:16.597Z,55.50
2022-10-04T06:40:16.595Z,56.86
2022-10-04T06:41:16.580Z,55.95
2022-10-04T06:42:16.600Z,55.65
2022-10-04T06:43:16.592Z,56.59
2022-10-04T06:44:16.569Z,53.13
2022-10-04T06:45:16.560Z,55.94
2022-10-04T06:46:16.657Z,57.00
2022-10-04T06:47:16.571Z,56.16
2022-10-04T06:48:16.538Z,54.50
2022-10-04T06:49:16.525Z,54.01
2022-10-04T06:50:16.549Z,57.12
2022-10-04T06:51:16.510Z,55.45
2022-10-04T06:52:17.606Z,58.48
2022-10-04T06:53:17.500Z,55.09
2022-10-04T06:54:16.479Z,55.73
2022-10-04T06:55:16.487Z,55.46
2022-10-04T06:56:16.476Z,53.71
2022-10-04T06:57:16.471Z,59.58
2022-10-04T06:58:16.491Z,55.44
2022-10-04T06:59:16.450Z,55.89
2022-10-04T07:00:16.446Z,52.78
2022-10-04T07:01:16.477Z,55.02
2022-10-04T07:02:16.485Z,56.72
2022-10-04T07:03:16.448Z,56.72
2022-10-04T07:04:16.417Z,56.04
2022-10-04T07:05:16.403Z,58.22
2022-10-04T07:06:16.398Z,57.97
2022-10-04T07:07:16.420Z,52.36
2022-10-04T07:08:16.386Z,57.18
2022-10-04T07:09:16.376Z,58.46
2022-10-04T07:10:16.367Z,55.55
2022-10-04T07:11:16.354Z,51.39
2022-10-04T07:12:16.377Z,55.18
2022-10-04T07:13:16.382Z,52.99
2022-10-04T07:14:16.335Z,53.67
2022-10-04T07:15:16.360Z,54.11
2022-10-04T07:16:16.374Z,58.36
2022-10-04T07:17:16.318Z,58.04
2022-10-04T07:18:16.336Z,55.42
2022-10-04T07:19:16.296Z,60.29
2022-10-04T07:20:16.289Z,58.27
2022-10-04T07:21:16.277Z,51.29
2022-10-04T07:22:16.269Z,58.01
2022-10-04T07:23:16.282Z,53.98
2022-10-04T07:24:16.250Z,54.67
2022-10-04T07:25:16.261Z,53.84
2022-10-04T07:26:16.237Z,56.00
2022-10-04T07:27:16.220Z,58.85
2022-10-04T07:28:16.273Z,53.52
2022-10-04T07:29:16.216Z,57.85
2022-10-04T07:30:16.214Z,57.96
2022-10-04T07:31:16.226Z,53.70
2022-10-04T07:32:16.185Z,54.38
2022-10-04T07:33:16.218Z,55.72
2022-10-04T07:34:16.194Z,55.61
2022-10-04T07:35:16.163Z,57.13
2022-10-04T07:36:21.089Z,54.93
2022-10-04T07:37:18.160Z,56.47
2022-10-04T07:38:16.173Z,58.16
2022-10-04T07:39:16.135Z,51.41
2022-10-04T07:40:16.138Z,53.54
2022-10-04T07:41:16.122Z,51.26
2022-10-04T07:42:16.115Z,55.43
2022-10-04T07:43:16.129Z,57.68
2022-10-04T07:44:16.118Z,55.08
2022-10-04T07:45:16.089Z,52.81
2022-10-04T07:46:16.106Z,56.57
2022-10-04T07:47:16.080Z,56.74
2022-10-04T07:48:16.090Z,61.03
2022-10-04T07:49:16.065Z,54.97
2022-10-04T07:50:16.051Z,54.10
2022-10-04T07:51:16.039Z,56.40
2022-10-04T07:52:16.033Z,55.24
2022-10-04T07:53:16.060Z,52.44
2022-10-04T07:54:16.017Z,55.83
2022-10-04T07:55:16.013Z,53.05
2022-10-04T07:56:16.016Z,55.58
2022-10-04T07:57:15.998Z,58.38
2022-10-04T07:58:16.117Z,54.12
2022-10-04T07:59:15.985Z,57.05
2022-10-04T08:00:15.964Z,56.44
2022-10-04T08:01:15.967Z,54.33
2022-10-04T08:02:16.032Z,54.27
2022-10-04T08:03:16.044Z,57.38
2022-10-04T08:04:15.942Z,55.30
2022-10-04T08:05:15.932Z,55.47
2022-10-04T08:06:15.926Z,56.20
2022-10-04T08:07:15.923Z,55.61
2022-10-04T08:08:15.941Z,58.10
2022-10-04T08:09:15.930Z,51.04
2022-10-04T08:10:15.892Z,55.41
2022-10-04T08:11:15.881Z,57.03
2022-10-04T08:12:15.880Z,56.31
2022-10-04T08:13:15.900Z,51.86
2022-10-04T08:14:15.858Z,54.11
2022-10-04T08:15:15.851Z,57.96
2022-10-04T08:16:15.908Z,53.37
2022-10-04T08:17:15.987Z,56.37
2022-10-04T08:18:16.828Z,53.24
2022-10-04T08:19:15.816Z,57.40
2022-10-04T08:20:15.817Z,57.08
2022-10-04T08:21:15.802Z,55.03
2022-10-04T08:22:15.827Z,53.26
2022-10-04T08:23:16.795Z,57.51
2022-10-04T08:24:15.776Z,55.61
2022-10-04T08:25:15.775Z,56.38
2022-10-04T08:26:15.762Z,54.55
2022-10-04T08:27:15.790Z,54.87
2022-10-04T08:28:15.809Z,53.63
2022-10-04T08:29:15.746Z,55.78
2022-10-04T08:30:15.734Z,56.59
2022-10-04T08:31:15.793Z,56.52
2022-10-04T08:32:15.715Z,56.64
2022-10-04T08:33:15.748Z,56.88
2022-10-04T08:34:15.703Z,55.91
2022-10-04T08:35:15.703Z,55.42
2022-10-04T08:36:15.700Z,57.50
2022-10-04T08:37:15.709Z,54.50
2022-10-04T08:38:15.705Z,56.70
2022-10-04T08:39:15.670Z,60.64
2022-10-04T08:40:15.677Z,53.23
2022-10-04T08:41:15.669Z,57.59
2022-10-04T08:42:15.667Z,55.26
2022-10-04T08:43:15.679Z,54.64
2022-10-04T08:44:15.645Z,57.54
2022-10-04T08:45:15.624Z,56.87
2022-10-04T08:46:15.699Z,55.29
2022-10-04T08:47:19.884Z,55.98
2022-10-04T08:48:17.634Z,56.13
2022-10-04T08:49:15.606Z,53.43
2022-10-04T08:50:15.594Z,56.72
2022-10-04T08:51:15.591Z,56.51
2022-10-04T08:52:15.576Z,50.73
2022-10-04T08:53:15.600Z,56.78
2022-10-04T08:54:15.565Z,55.86
2022-10-04T08:55:15.562Z,57.20
2022-10-04T08:56:15.559Z,58.07
2022-10-04T08:57:16.467Z,52.51
2022-10-04T08:58:16.573Z,52.55
2022-10-04T08:59:15.528Z,56.28
2022-10-04T09:00:15.531Z,57.72
2022-10-04T09:01:15.547Z,55.81
2022-10-04T09:02:15.551Z,54.81
2022-10-04T09:03:15.530Z,51.38
2022-10-04T09:04:15.489Z,56.97
2022-10-04T09:05:15.491Z,56.54
2022-10-04T09:06:15.481Z,52.52
2022-10-04T09:07:15.474Z,56.45
2022-10-04T09:08:15.494Z,53.08
2022-10-04T09:09:15.497Z,56.98
2022-10-04T09:10:15.477Z,53.11
2022-10-04T09:11:15.469Z,58.60
2022-10-04T09:12:15.464Z,56.32
2022-10-04T09:13:15.495Z,57.28
2022-10-04T09:14:15.455Z,55.03
2022-10-04T09:15:15.403Z,58.41
2022-10-04T09:16:15.443Z,55.75
2022-10-04T09:17:18.578Z,56.55
2022-10-04T09:18:17.405Z,56.89
2022-10-04T09:19:15.417Z,63.01
2022-10-04T09:20:37.405Z,57.41
2022-10-04T09:21:17.359Z,57.07
2022-10-04T09:22:15.355Z,56.46
2022-10-04T09:23:15.371Z,54.13
2022-10-04T09:24:15.340Z,53.21
2022-10-04T09:25:15.352Z,56.21
2022-10-04T09:26:15.339Z,57.13
2022-10-04T09:27:31.490Z,57.63
2022-10-04T09:28:17.451Z,55.68
2022-10-04T09:29:15.302Z,57.94
2022-10-04T09:30:15.372Z,56.57
2022-10-04T09:31:15.323Z,56.13
2022-10-04T09:32:15.287Z,53.37
2022-10-04T09:33:16.716Z,54.85
2022-10-04T09:34:16.284Z,65.72
2022-10-04T09:35:15.310Z,64.43
2022-10-04T09:36:16.217Z,66.63
2022-10-04T09:37:17.737Z,66.34
2022-10-04T09:38:16.382Z,64.26
2022-10-04T09:39:29.892Z,67.86
2022-10-04T09:40:20.731Z,61.67
2022-10-04T09:41:17.224Z,60.74
2022-10-04T09:42:16.235Z,56.99
2022-10-04T09:43:15.781Z,59.11
2022-10-04T09:44:17.806Z,52.96
2022-10-04T09:45:15.922Z,72.20
2022-10-04T09:46:16.795Z,71.44
2022-10-04T09:47:18.799Z,67.12
2022-10-04T09:48:18.275Z,73.56
2022-10-04T09:49:17.223Z,75.90
2022-10-04T09:50:18.237Z,70.02
2022-10-04T09:51:17.223Z,63.97
2022-10-04T09:52:18.274Z,69.88
2022-10-04T09:53:15.773Z,68.18
2022-10-04T09:54:15.164Z,71.36
2022-10-04T09:55:18.801Z,69.03
2022-10-04T09:56:16.868Z,66.42
2022-10-04T09:57:17.304Z,67.53
2022-10-04T09:58:17.754Z,68.99
2022-10-04T09:59:49.331Z,67.82
2022-10-04T10:00:15.059Z,71.57
2022-10-04T10:01:15.098Z,67.80
2022-10-04T10:02:15.046Z,65.26
2022-10-04T10:03:16.108Z,57.48
2022-10-04T10:04:16.024Z,66.09
2022-10-04T10:05:15.030Z,66.59
2022-10-04T10:06:15.006Z,70.02
2022-10-04T10:07:15.094Z,56.27
2022-10-04T10:08:14.994Z,68.65
2022-10-04T10:09:14.988Z,53.93
2022-10-04T10:10:14.978Z,54.58
2022-10-04T10:11:14.974Z,56.36
2022-10-04T10:12:14.993Z,56.21
2022-10-04T10:13:14.964Z,56.16
2022-10-04T10:14:14.946Z,56.87
2022-10-04T10:15:14.940Z,56.59
2022-10-04T10:16:14.992Z,58.04
2022-10-04T10:17:14.921Z,58.83
2022-10-04T10:18:14.945Z,55.85
2022-10-04T10:19:14.927Z,58.70
2022-10-04T10:20:14.897Z,58.34
2022-10-04T10:21:15.892Z,56.37
2022-10-04T10:22:14.883Z,57.50
2022-10-04T10:23:14.902Z,55.08
2022-10-04T10:24:14.869Z,54.39
2022-10-04T10:25:14.856Z,56.77
2022-10-04T10:26:14.851Z,56.73
2022-10-04T10:27:14.844Z,57.33
2022-10-04T10:28:14.925Z,53.90
2022-10-04T10:29:14.832Z,54.72
2022-10-04T10:30:14.828Z,58.05
2022-10-04T10:31:14.846Z,56.71
2022-10-04T10:32:14.837Z,53.70
2022-10-04T10:33:14.794Z,52.12
2022-10-04T10:34:14.790Z,56.30
2022-10-04T10:35:14.781Z,58.29
2022-10-04T10:36:14.771Z,54.53
2022-10-04T10:37:14.792Z,53.82
2022-10-04T10:38:14.786Z,54.14
2022-10-04T10:39:14.753Z,52.43
2022-10-04T10:40:14.738Z,52.88
2022-10-04T10:41:14.736Z,53.90
2022-10-04T10:42:14.729Z,56.66
2022-10-04T10:43:14.759Z,56.82
2022-10-04T10:44:14.712Z,54.05
2022-10-04T10:45:14.707Z,52.95
2022-10-04T10:46:14.727Z,55.85
2022-10-04T10:47:14.686Z,52.83
2022-10-04T10:48:14.708Z,54.81
2022-10-04T10:49:16.952Z,56.84
2022-10-04T10:50:14.670Z,54.43
2022-10-04T10:51:14.659Z,54.28
2022-10-04T10:52:14.651Z,56.23
2022-10-04T10:53:14.665Z,54.98
2022-10-04T10:54:14.632Z,54.33
2022-10-04T10:55:14.648Z,54.89
2022-10-04T10:56:14.626Z,54.45
2022-10-04T10:57:14.639Z,53.15
2022-10-04T10:58:14.605Z,52.07
2022-10-04T10:59:14.599Z,53.15
2022-10-04T11:00:14.589Z,54.61
2022-10-04T11:01:14.593Z,54.43
2022-10-04T11:02:14.706Z,56.69
2022-10-04T11:03:17.265Z,55.19
2022-10-04T11:04:14.553Z,55.00
2022-10-04T11:05:14.554Z,55.98
2022-10-04T11:06:14.538Z,53.05
2022-10-04T11:07:14.562Z,54.23
2022-10-04T11:08:14.539Z,56.29
2022-10-04T11:09:14.518Z,54.09
2022-10-04T11:10:14.521Z,54.26
2022-10-04T11:11:14.509Z,54.31
2022-10-04T11:12:14.554Z,55.53
2022-10-04T11:13:14.494Z,53.68
2022-10-04T11:14:14.488Z,55.38
2022-10-04T11:15:14.479Z,54.60
2022-10-04T11:16:14.512Z,51.37
2022-10-04T11:17:14.497Z,56.82
2022-10-04T11:18:14.470Z,53.09
2022-10-04T11:19:14.448Z,50.85
2022-10-04T11:20:14.448Z,56.43
2022-10-04T11:21:14.478Z,56.38
2022-10-04T11:22:14.455Z,54.92
2022-10-04T11:23:14.438Z,56.83
2022-10-04T11:24:14.457Z,53.39
2022-10-04T11:25:14.399Z,49.78
2022-10-04T11:26:14.393Z,57.78
2022-10-04T11:27:14.431Z,54.32
2022-10-04T11:28:14.515Z,56.03
2022-10-04T11:29:14.368Z,55.76
2022-10-04T11:30:14.363Z,56.45
2022-10-04T11:31:14.519Z,56.17
2022-10-04T11:32:14.360Z,55.18
2022-10-04T11:33:14.386Z,55.20
2022-10-04T11:34:16.798Z,51.86
2022-10-04T11:35:15.331Z,55.35
2022-10-04T11:36:14.315Z,53.36
2022-10-04T11:37:14.314Z,54.71
2022-10-04T11:38:14.329Z,55.34
2022-10-04T11:39:14.294Z,59.87
2022-10-04T11:40:14.282Z,55.76
2022-10-04T11:41:14.277Z,55.55
2022-10-04T11:42:14.309Z,53.98
2022-10-04T11:43:14.261Z,56.35
2022-10-04T11:44:14.256Z,53.40
2022-10-04T11:45:14.243Z,57.77
2022-10-04T11:46:14.320Z,50.59
2022-10-04T11:47:14.275Z,57.29
2022-10-04T11:48:14.224Z,53.04
2022-10-04T11:49:14.261Z,49.25
2022-10-04T11:50:14.214Z,59.51
2022-10-04T11:51:14.199Z,55.38
2022-10-04T11:52:14.216Z,55.03
2022-10-04T11:53:14.183Z,53.13
2022-10-04T11:54:14.171Z,50.76
2022-10-04T11:55:14.168Z,57.47
2022-10-04T11:56:14.197Z,54.59
2022-10-04T11:57:14.180Z,55.61
2022-10-04T11:58:14.138Z,55.45
2022-10-04T11:59:14.132Z,54.46
2022-10-04T12:00:14.129Z,57.19
2022-10-04T12:01:14.138Z,59.36
2022-10-04T12:02:14.135Z,57.95
2022-10-04T12:03:14.133Z,55.56
2022-10-04T12:04:14.232Z,56.44
2022-10-04T12:05:14.089Z,57.82
2022-10-04T12:06:14.092Z,67.36
2022-10-04T12:07:14.104Z,59.46
2022-10-04T12:08:14.066Z,68.07
2022-10-04T12:09:14.062Z,72.47
2022-10-04T12:10:14.056Z,76.79
2022-10-04T12:11:14.045Z,68.22
2022-10-04T12:12:14.067Z,68.78
2022-10-04T12:13:14.027Z,76.65
2022-10-04T12:14:14.079Z,73.05
2022-10-04T12:15:14.028Z,72.01
2022-10-04T12:16:14.043Z,71.63
2022-10-04T12:17:14.001Z,70.92
2022-10-04T12:18:14.022Z,70.35
2022-10-04T12:19:13.990Z,76.01
2022-10-04T12:20:13.981Z,72.70
2022-10-04T12:21:13.972Z,72.26
2022-10-04T12:22:13.991Z,72.53
2022-10-04T12:23:13.952Z,70.10
2022-10-04T12:24:13.949Z,68.48
2022-10-04T12:25:13.940Z,69.18
2022-10-04T12:26:18.472Z,68.78
2022-10-04T12:27:15.971Z,68.12
2022-10-04T12:28:13.999Z,67.28
2022-10-04T12:29:13.910Z,65.87
2022-10-04T12:30:13.906Z,56.16
2022-10-04T12:31:13.960Z,57.16
2022-10-04T12:32:13.917Z,52.41
2022-10-04T12:33:13.875Z,54.31
2022-10-04T12:34:13.871Z,61.63
2022-10-04T12:35:13.876Z,57.54
2022-10-04T12:36:13.855Z,54.55
2022-10-04T12:37:13.926Z,54.14
2022-10-04T12:38:13.852Z,53.53
2022-10-04T12:39:13.834Z,58.13
2022-10-04T12:40:13.833Z,55.90
2022-10-04T12:41:13.828Z,54.33
2022-10-04T12:42:13.848Z,56.56
2022-10-04T12:43:13.805Z,55.21
2022-10-04T12:44:13.805Z,58.49
2022-10-04T12:45:13.789Z,55.92
2022-10-04T12:46:14.901Z,56.96
2022-10-04T12:47:13.806Z,53.39
2022-10-04T12:48:13.778Z,53.90
2022-10-04T12:49:13.756Z,54.64
2022-10-04T12:50:13.754Z,55.08
2022-10-04T12:51:13.767Z,56.72
2022-10-04T12:52:13.778Z,56.66